sensor_id;sensor_type;location;lat;lon;timestamp;P1;durP1;ratioP1;P2;durP2;ratioP2
18172;SDS011;9211;48.818;9.312;2024-01-16T00:01:01;8.15;;;3.78;;
18172;SDS011;9211;48.818;9.312;2024-01-16T00:03:28;8.10;;;4.22;;
18172;SDS011;9211;48.818;9.312;2024-01-16T00:05:55;9.02;;;3.90;;
18172;SDS011;9211;48.818;9.312;2024-01-16T00:08:22;10.10;;;3.92;;
18172;SDS011;9211;48.818;9.312;2024-01-16T00:10:49;8.82;;;4.07;;
18172;SDS011;9211;48.818;9.312;2024-01-16T00:13:17;9.93;;;3.83;;
18172;SDS011;9211;48.818;9.312;2024-01-16T00:15:45;10.65;;;4.03;;
18172;SDS011;9211;48.818;9.312;2024-01-16T00:18:12;8.20;;;4.18;;
18172;SDS011;9211;48.818;9.312;2024-01-16T00:20:39;7.50;;;3.80;;
18172;SDS011;9211;48.818;9.312;2024-01-16T00:23:06;9.52;;;4.25;;
18172;SDS011;9211;48.818;9.312;2024-01-16T00:25:33;9.35;;;4.00;;
18172;SDS011;9211;48.818;9.312;2024-01-16T00:28:01;9.50;;;4.27;;
18172;SDS011;9211;48.818;9.312;2024-01-16T00:32:57;8.55;;;4.10;;
18172;SDS011;9211;48.818;9.312;2024-01-16T00:35:24;8.90;;;4.13;;
18172;SDS011;9211;48.818;9.312;2024-01-16T00:37:51;8.65;;;4.20;;
18172;SDS011;9211;48.818;9.312;2024-01-16T00:40:18;10.35;;;4.20;;
18172;SDS011;9211;48.818;9.312;2024-01-16T00:42:45;8.60;;;4.20;;
18172;SDS011;9211;48.818;9.312;2024-01-16T00:45:12;11.73;;;4.25;;
18172;SDS011;9211;48.818;9.312;2024-01-16T00:47:39;11.23;;;4.40;;
18172;SDS011;9211;48.818;9.312;2024-01-16T00:50:08;8.80;;;4.28;;
18172;SDS011;9211;48.818;9.312;2024-01-16T00:52:35;8.77;;;4.35;;
18172;SDS011;9211;48.818;9.312;2024-01-16T00:55:02;8.75;;;4.38;;
18172;SDS011;9211;48.818;9.312;2024-01-16T00:57:29;9.55;;;4.60;;
18172;SDS011;9211;48.818;9.312;2024-01-16T00:59:56;9.02;;;4.57;;
18172;SDS011;9211;48.818;9.312;2024-01-16T01:02:23;10.15;;;4.40;;
18172;SDS011;9211;48.818;9.312;2024-01-16T01:04:50;9.82;;;4.10;;
18172;SDS011;9211;48.818;9.312;2024-01-16T01:07:18;9.00;;;4.60;;
18172;SDS011;9211;48.818;9.312;2024-01-16T01:09:45;11.05;;;4.72;;
18172;SDS011;9211;48.818;9.312;2024-01-16T01:12:12;9.48;;;4.55;;
18172;SDS011;9211;48.818;9.312;2024-01-16T01:14:39;8.57;;;4.13;;
18172;SDS011;9211;48.818;9.312;2024-01-16T01:17:06;8.73;;;4.45;;
18172;SDS011;9211;48.818;9.312;2024-01-16T01:19:33;8.47;;;4.30;;
18172;SDS011;9211;48.818;9.312;2024-01-16T01:22:00;9.32;;;4.03;;
18172;SDS011;9211;48.818;9.312;2024-01-16T01:24:28;11.85;;;4.22;;
18172;SDS011;9211;48.818;9.312;2024-01-16T01:26:55;8.73;;;4.15;;
18172;SDS011;9211;48.818;9.312;2024-01-16T01:29:23;10.38;;;4.47;;
18172;SDS011;9211;48.818;9.312;2024-01-16T01:31:50;9.80;;;4.45;;
18172;SDS011;9211;48.818;9.312;2024-01-16T01:34:17;11.05;;;4.40;;
18172;SDS011;9211;48.818;9.312;2024-01-16T01:36:43;9.80;;;4.40;;
18172;SDS011;9211;48.818;9.312;2024-01-16T01:39:10;9.60;;;4.13;;
18172;SDS011;9211;48.818;9.312;2024-01-16T01:41:39;8.93;;;4.40;;
18172;SDS011;9211;48.818;9.312;2024-01-16T01:44:06;8.07;;;4.35;;
18172;SDS011;9211;48.818;9.312;2024-01-16T01:46:40;9.02;;;4.13;;
18172;SDS011;9211;48.818;9.312;2024-01-16T01:49:08;11.70;;;4.00;;
18172;SDS011;9211;48.818;9.312;2024-01-16T01:51:35;9.50;;;4.20;;
18172;SDS011;9211;48.818;9.312;2024-01-16T01:54:02;11.52;;;4.35;;
18172;SDS011;9211;48.818;9.312;2024-01-16T01:56:29;8.13;;;4.10;;
18172;SDS011;9211;48.818;9.312;2024-01-16T01:58:57;9.15;;;4.07;;
18172;SDS011;9211;48.818;9.312;2024-01-16T02:01:25;9.88;;;4.47;;
18172;SDS011;9211;48.818;9.312;2024-01-16T02:03:55;7.82;;;4.30;;
18172;SDS011;9211;48.818;9.312;2024-01-16T02:06:22;7.90;;;4.15;;
18172;SDS011;9211;48.818;9.312;2024-01-16T02:08:49;9.27;;;4.20;;
18172;SDS011;9211;48.818;9.312;2024-01-16T02:11:17;11.15;;;4.47;;
18172;SDS011;9211;48.818;9.312;2024-01-16T02:13:44;10.23;;;4.25;;
18172;SDS011;9211;48.818;9.312;2024-01-16T02:16:19;11.35;;;4.50;;
18172;SDS011;9211;48.818;9.312;2024-01-16T02:18:47;10.15;;;4.40;;
18172;SDS011;9211;48.818;9.312;2024-01-16T02:21:15;10.55;;;4.43;;
18172;SDS011;9211;48.818;9.312;2024-01-16T02:23:49;11.48;;;4.65;;
18172;SDS011;9211;48.818;9.312;2024-01-16T02:26:17;11.45;;;4.88;;
18172;SDS011;9211;48.818;9.312;2024-01-16T02:28:44;11.15;;;4.55;;
18172;SDS011;9211;48.818;9.312;2024-01-16T02:31:11;8.83;;;4.50;;
18172;SDS011;9211;48.818;9.312;2024-01-16T02:33:38;8.98;;;4.22;;
18172;SDS011;9211;48.818;9.312;2024-01-16T02:36:05;10.10;;;4.60;;
18172;SDS011;9211;48.818;9.312;2024-01-16T02:38:32;11.45;;;4.55;;
18172;SDS011;9211;48.818;9.312;2024-01-16T02:41:01;9.85;;;4.22;;
18172;SDS011;9211;48.818;9.312;2024-01-16T02:43:27;8.95;;;4.30;;
18172;SDS011;9211;48.818;9.312;2024-01-16T02:45:54;8.98;;;4.50;;
18172;SDS011;9211;48.818;9.312;2024-01-16T02:48:21;10.55;;;4.38;;
18172;SDS011;9211;48.818;9.312;2024-01-16T02:50:48;9.45;;;4.40;;
18172;SDS011;9211;48.818;9.312;2024-01-16T02:53:15;8.18;;;4.38;;
18172;SDS011;9211;48.818;9.312;2024-01-16T02:55:42;10.10;;;4.33;;
18172;SDS011;9211;48.818;9.312;2024-01-16T02:58:11;12.02;;;4.80;;
18172;SDS011;9211;48.818;9.312;2024-01-16T03:03:22;10.20;;;4.80;;
18172;SDS011;9211;48.818;9.312;2024-01-16T03:05:50;9.25;;;4.50;;
18172;SDS011;9211;48.818;9.312;2024-01-16T03:08:16;10.98;;;4.72;;
18172;SDS011;9211;48.818;9.312;2024-01-16T03:10:43;10.43;;;4.72;;
18172;SDS011;9211;48.818;9.312;2024-01-16T03:13:12;10.63;;;4.50;;
18172;SDS011;9211;48.818;9.312;2024-01-16T03:15:39;10.30;;;4.75;;
18172;SDS011;9211;48.818;9.312;2024-01-16T03:18:06;9.48;;;5.13;;
18172;SDS011;9211;48.818;9.312;2024-01-16T03:20:33;10.97;;;4.87;;
18172;SDS011;9211;48.818;9.312;2024-01-16T03:23:00;9.27;;;4.50;;
18172;SDS011;9211;48.818;9.312;2024-01-16T03:25:27;12.70;;;4.72;;
18172;SDS011;9211;48.818;9.312;2024-01-16T03:27:53;9.40;;;4.60;;
18172;SDS011;9211;48.818;9.312;2024-01-16T03:30:22;9.40;;;4.70;;
18172;SDS011;9211;48.818;9.312;2024-01-16T03:32:49;7.47;;;4.40;;
18172;SDS011;9211;48.818;9.312;2024-01-16T03:35:16;11.97;;;4.87;;
18172;SDS011;9211;48.818;9.312;2024-01-16T03:37:43;8.55;;;4.35;;
18172;SDS011;9211;48.818;9.312;2024-01-16T03:40:10;10.07;;;4.35;;
18172;SDS011;9211;48.818;9.312;2024-01-16T03:42:38;8.48;;;4.28;;
18172;SDS011;9211;48.818;9.312;2024-01-16T03:45:05;9.73;;;4.85;;
18172;SDS011;9211;48.818;9.312;2024-01-16T03:47:34;11.57;;;4.53;;
18172;SDS011;9211;48.818;9.312;2024-01-16T03:50:01;8.98;;;4.70;;
18172;SDS011;9211;48.818;9.312;2024-01-16T03:52:28;11.40;;;4.60;;
18172;SDS011;9211;48.818;9.312;2024-01-16T03:54:55;11.40;;;4.95;;
18172;SDS011;9211;48.818;9.312;2024-01-16T03:57:22;10.32;;;4.78;;
18172;SDS011;9211;48.818;9.312;2024-01-16T03:59:50;9.63;;;4.88;;
18172;SDS011;9211;48.818;9.312;2024-01-16T04:02:16;10.98;;;5.07;;
18172;SDS011;9211;48.818;9.312;2024-01-16T04:04:45;12.00;;;5.03;;
18172;SDS011;9211;48.818;9.312;2024-01-16T04:07:12;9.85;;;4.50;;
18172;SDS011;9211;48.818;9.312;2024-01-16T04:09:38;10.50;;;4.53;;
18172;SDS011;9211;48.818;9.312;2024-01-16T04:12:06;13.65;;;5.03;;
18172;SDS011;9211;48.818;9.312;2024-01-16T04:14:33;11.73;;;4.68;;
18172;SDS011;9211;48.818;9.312;2024-01-16T04:17:01;10.68;;;4.90;;
18172;SDS011;9211;48.818;9.312;2024-01-16T04:19:28;11.77;;;5.40;;
18172;SDS011;9211;48.818;9.312;2024-01-16T04:22:00;10.13;;;5.07;;
18172;SDS011;9211;48.818;9.312;2024-01-16T04:24:27;8.90;;;4.90;;
18172;SDS011;9211;48.818;9.312;2024-01-16T04:26:54;9.75;;;4.60;;
18172;SDS011;9211;48.818;9.312;2024-01-16T04:29:20;10.40;;;4.93;;
18172;SDS011;9211;48.818;9.312;2024-01-16T04:31:48;8.90;;;4.70;;
18172;SDS011;9211;48.818;9.312;2024-01-16T04:34:14;9.63;;;4.57;;
18172;SDS011;9211;48.818;9.312;2024-01-16T04:36:41;10.13;;;4.90;;
18172;SDS011;9211;48.818;9.312;2024-01-16T04:39:10;10.10;;;4.95;;
18172;SDS011;9211;48.818;9.312;2024-01-16T04:41:37;10.38;;;4.55;;
18172;SDS011;9211;48.818;9.312;2024-01-16T04:44:04;10.30;;;4.80;;
18172;SDS011;9211;48.818;9.312;2024-01-16T04:46:31;9.68;;;4.90;;
18172;SDS011;9211;48.818;9.312;2024-01-16T04:48:57;12.32;;;5.30;;
18172;SDS011;9211;48.818;9.312;2024-01-16T04:51:24;13.20;;;5.05;;
18172;SDS011;9211;48.818;9.312;2024-01-16T04:53:51;10.60;;;5.00;;
18172;SDS011;9211;48.818;9.312;2024-01-16T04:56:20;11.80;;;4.72;;
18172;SDS011;9211;48.818;9.312;2024-01-16T04:58:47;9.55;;;4.68;;
18172;SDS011;9211;48.818;9.312;2024-01-16T05:01:14;10.02;;;5.05;;
18172;SDS011;9211;48.818;9.312;2024-01-16T05:03:40;8.88;;;4.80;;
18172;SDS011;9211;48.818;9.312;2024-01-16T05:06:11;8.85;;;4.68;;
18172;SDS011;9211;48.818;9.312;2024-01-16T05:08:40;12.45;;;4.75;;
18172;SDS011;9211;48.818;9.312;2024-01-16T05:11:07;9.02;;;4.72;;
18172;SDS011;9211;48.818;9.312;2024-01-16T05:13:35;14.15;;;4.93;;
18172;SDS011;9211;48.818;9.312;2024-01-16T05:16:02;12.95;;;5.30;;
18172;SDS011;9211;48.818;9.312;2024-01-16T05:18:29;11.80;;;5.10;;
18172;SDS011;9211;48.818;9.312;2024-01-16T05:20:57;12.85;;;4.95;;
18172;SDS011;9211;48.818;9.312;2024-01-16T05:23:24;10.32;;;5.13;;
18172;SDS011;9211;48.818;9.312;2024-01-16T05:25:52;10.23;;;4.95;;
18172;SDS011;9211;48.818;9.312;2024-01-16T05:28:19;10.77;;;4.82;;
18172;SDS011;9211;48.818;9.312;2024-01-16T05:30:47;12.10;;;5.13;;
18172;SDS011;9211;48.818;9.312;2024-01-16T05:33:14;9.37;;;5.03;;
18172;SDS011;9211;48.818;9.312;2024-01-16T05:35:41;10.15;;;5.10;;
18172;SDS011;9211;48.818;9.312;2024-01-16T05:38:08;11.95;;;5.25;;
18172;SDS011;9211;48.818;9.312;2024-01-16T05:40:37;10.65;;;5.10;;
18172;SDS011;9211;48.818;9.312;2024-01-16T05:43:04;11.93;;;5.30;;
18172;SDS011;9211;48.818;9.312;2024-01-16T05:45:31;10.93;;;4.90;;
18172;SDS011;9211;48.818;9.312;2024-01-16T05:47:59;11.07;;;5.10;;
18172;SDS011;9211;48.818;9.312;2024-01-16T05:50:26;13.63;;;5.22;;
18172;SDS011;9211;48.818;9.312;2024-01-16T05:52:53;11.10;;;5.60;;
18172;SDS011;9211;48.818;9.312;2024-01-16T05:55:20;10.52;;;5.65;;
18172;SDS011;9211;48.818;9.312;2024-01-16T05:57:47;14.88;;;5.72;;
18172;SDS011;9211;48.818;9.312;2024-01-16T06:00:14;12.85;;;5.40;;
18172;SDS011;9211;48.818;9.312;2024-01-16T06:02:43;13.90;;;5.68;;
18172;SDS011;9211;48.818;9.312;2024-01-16T06:05:11;12.20;;;5.28;;
18172;SDS011;9211;48.818;9.312;2024-01-16T06:07:38;12.77;;;5.72;;
18172;SDS011;9211;48.818;9.312;2024-01-16T06:10:06;11.93;;;5.10;;
18172;SDS011;9211;48.818;9.312;2024-01-16T06:12:34;12.55;;;5.38;;
18172;SDS011;9211;48.818;9.312;2024-01-16T06:15:01;12.57;;;5.30;;
18172;SDS011;9211;48.818;9.312;2024-01-16T06:17:28;13.27;;;5.90;;
18172;SDS011;9211;48.818;9.312;2024-01-16T06:19:55;14.20;;;5.90;;
18172;SDS011;9211;48.818;9.312;2024-01-16T06:22:23;13.80;;;5.75;;
18172;SDS011;9211;48.818;9.312;2024-01-16T06:24:50;11.68;;;5.75;;
18172;SDS011;9211;48.818;9.312;2024-01-16T06:27:17;11.27;;;5.30;;
18172;SDS011;9211;48.818;9.312;2024-01-16T06:29:45;12.60;;;5.67;;
18172;SDS011;9211;48.818;9.312;2024-01-16T06:32:12;12.73;;;5.88;;
18172;SDS011;9211;48.818;9.312;2024-01-16T06:34:39;10.23;;;5.20;;
18172;SDS011;9211;48.818;9.312;2024-01-16T06:37:06;10.63;;;4.60;;
18172;SDS011;9211;48.818;9.312;2024-01-16T06:39:34;9.48;;;4.50;;
18172;SDS011;9211;48.818;9.312;2024-01-16T06:42:01;9.85;;;4.60;;
18172;SDS011;9211;48.818;9.312;2024-01-16T06:44:30;10.52;;;5.05;;
18172;SDS011;9211;48.818;9.312;2024-01-16T06:46:57;9.95;;;4.60;;
18172;SDS011;9211;48.818;9.312;2024-01-16T06:49:24;8.18;;;4.10;;
18172;SDS011;9211;48.818;9.312;2024-01-16T06:51:52;8.55;;;4.20;;
18172;SDS011;9211;48.818;9.312;2024-01-16T06:54:19;10.38;;;4.40;;
18172;SDS011;9211;48.818;9.312;2024-01-16T06:56:50;10.40;;;4.43;;
18172;SDS011;9211;48.818;9.312;2024-01-16T06:59:16;9.18;;;4.55;;
18172;SDS011;9211;48.818;9.312;2024-01-16T07:01:46;8.02;;;4.25;;
18172;SDS011;9211;48.818;9.312;2024-01-16T07:04:13;9.85;;;4.53;;
18172;SDS011;9211;48.818;9.312;2024-01-16T07:06:40;9.40;;;4.30;;
18172;SDS011;9211;48.818;9.312;2024-01-16T07:09:08;12.20;;;4.50;;
18172;SDS011;9211;48.818;9.312;2024-01-16T07:11:37;10.82;;;4.50;;
18172;SDS011;9211;48.818;9.312;2024-01-16T07:14:09;10.40;;;4.68;;
18172;SDS011;9211;48.818;9.312;2024-01-16T07:16:36;10.02;;;3.90;;
18172;SDS011;9211;48.818;9.312;2024-01-16T07:19:05;10.38;;;4.25;;
18172;SDS011;9211;48.818;9.312;2024-01-16T07:21:32;7.70;;;3.85;;
18172;SDS011;9211;48.818;9.312;2024-01-16T07:24:00;9.63;;;4.15;;
18172;SDS011;9211;48.818;9.312;2024-01-16T07:26:28;9.85;;;3.83;;
18172;SDS011;9211;48.818;9.312;2024-01-16T07:28:55;8.05;;;3.85;;
18172;SDS011;9211;48.818;9.312;2024-01-16T07:31:24;8.35;;;3.92;;
18172;SDS011;9211;48.818;9.312;2024-01-16T07:33:51;8.37;;;4.30;;
18172;SDS011;9211;48.818;9.312;2024-01-16T07:36:18;10.43;;;4.38;;
18172;SDS011;9211;48.818;9.312;2024-01-16T07:38:45;10.00;;;4.20;;
18172;SDS011;9211;48.818;9.312;2024-01-16T07:41:13;9.95;;;4.35;;
18172;SDS011;9211;48.818;9.312;2024-01-16T07:43:39;10.17;;;4.60;;
18172;SDS011;9211;48.818;9.312;2024-01-16T07:46:06;9.07;;;4.70;;
18172;SDS011;9211;48.818;9.312;2024-01-16T07:48:34;10.68;;;4.43;;
18172;SDS011;9211;48.818;9.312;2024-01-16T07:51:01;8.00;;;3.80;;
18172;SDS011;9211;48.818;9.312;2024-01-16T07:53:28;9.65;;;3.85;;
18172;SDS011;9211;48.818;9.312;2024-01-16T07:55:55;9.38;;;3.90;;
18172;SDS011;9211;48.818;9.312;2024-01-16T07:58:23;9.82;;;4.10;;
18172;SDS011;9211;48.818;9.312;2024-01-16T08:00:50;11.15;;;3.92;;
18172;SDS011;9211;48.818;9.312;2024-01-16T08:03:17;9.20;;;4.00;;
18172;SDS011;9211;48.818;9.312;2024-01-16T08:05:45;8.17;;;3.60;;
18172;SDS011;9211;48.818;9.312;2024-01-16T08:08:12;8.63;;;3.70;;
18172;SDS011;9211;48.818;9.312;2024-01-16T08:10:40;10.55;;;4.18;;
18172;SDS011;9211;48.818;9.312;2024-01-16T08:13:08;10.65;;;4.20;;
18172;SDS011;9211;48.818;9.312;2024-01-16T08:15:35;10.60;;;4.22;;
18172;SDS011;9211;48.818;9.312;2024-01-16T08:18:02;9.88;;;4.40;;
18172;SDS011;9211;48.818;9.312;2024-01-16T08:20:29;11.80;;;4.72;;
18172;SDS011;9211;48.818;9.312;2024-01-16T08:22:58;9.90;;;4.65;;
18172;SDS011;9211;48.818;9.312;2024-01-16T08:25:24;11.27;;;4.75;;
18172;SDS011;9211;48.818;9.312;2024-01-16T08:27:51;11.53;;;4.57;;
18172;SDS011;9211;48.818;9.312;2024-01-16T08:30:19;11.60;;;4.38;;
18172;SDS011;9211;48.818;9.312;2024-01-16T08:32:46;9.60;;;4.30;;
18172;SDS011;9211;48.818;9.312;2024-01-16T08:35:13;9.65;;;4.30;;
18172;SDS011;9211;48.818;9.312;2024-01-16T08:37:40;13.57;;;4.07;;
18172;SDS011;9211;48.818;9.312;2024-01-16T08:40:09;11.93;;;3.95;;
18172;SDS011;9211;48.818;9.312;2024-01-16T08:42:37;11.77;;;4.00;;
18172;SDS011;9211;48.818;9.312;2024-01-16T08:45:04;11.25;;;3.67;;
18172;SDS011;9211;48.818;9.312;2024-01-16T08:47:32;10.00;;;3.40;;
18172;SDS011;9211;48.818;9.312;2024-01-16T08:49:59;10.30;;;3.70;;
18172;SDS011;9211;48.818;9.312;2024-01-16T08:52:27;9.90;;;4.30;;
18172;SDS011;9211;48.818;9.312;2024-01-16T08:54:58;9.93;;;3.92;;
18172;SDS011;9211;48.818;9.312;2024-01-16T08:57:26;14.00;;;4.00;;
18172;SDS011;9211;48.818;9.312;2024-01-16T08:59:53;9.05;;;4.05;;
18172;SDS011;9211;48.818;9.312;2024-01-16T09:02:23;13.00;;;4.22;;
18172;SDS011;9211;48.818;9.312;2024-01-16T09:04:53;10.77;;;4.05;;
18172;SDS011;9211;48.818;9.312;2024-01-16T09:07:20;8.50;;;3.92;;
18172;SDS011;9211;48.818;9.312;2024-01-16T09:09:48;10.05;;;3.97;;
18172;SDS011;9211;48.818;9.312;2024-01-16T09:12:15;17.55;;;4.18;;
18172;SDS011;9211;48.818;9.312;2024-01-16T09:14:43;13.48;;;4.05;;
18172;SDS011;9211;48.818;9.312;2024-01-16T09:17:10;10.90;;;3.45;;
18172;SDS011;9211;48.818;9.312;2024-01-16T09:19:37;14.73;;;4.10;;
18172;SDS011;9211;48.818;9.312;2024-01-16T09:22:04;12.48;;;3.70;;
18172;SDS011;9211;48.818;9.312;2024-01-16T09:24:32;11.05;;;3.70;;
18172;SDS011;9211;48.818;9.312;2024-01-16T09:26:59;14.75;;;3.63;;
18172;SDS011;9211;48.818;9.312;2024-01-16T09:29:26;16.05;;;3.83;;
18172;SDS011;9211;48.818;9.312;2024-01-16T09:31:55;11.65;;;3.90;;
18172;SDS011;9211;48.818;9.312;2024-01-16T09:34:22;13.95;;;3.83;;
18172;SDS011;9211;48.818;9.312;2024-01-16T09:36:49;11.65;;;3.88;;
18172;SDS011;9211;48.818;9.312;2024-01-16T09:39:16;11.63;;;4.20;;
18172;SDS011;9211;48.818;9.312;2024-01-16T09:41:44;13.48;;;4.55;;
18172;SDS011;9211;48.818;9.312;2024-01-16T09:44:11;11.65;;;4.22;;
18172;SDS011;9211;48.818;9.312;2024-01-16T09:46:38;9.40;;;4.05;;
18172;SDS011;9211;48.818;9.312;2024-01-16T09:49:11;9.43;;;4.17;;
18172;SDS011;9211;48.818;9.312;2024-01-16T09:51:40;13.70;;;4.30;;
18172;SDS011;9211;48.818;9.312;2024-01-16T09:54:09;11.00;;;4.10;;
18172;SDS011;9211;48.818;9.312;2024-01-16T09:56:39;11.73;;;3.93;;
18172;SDS011;9211;48.818;9.312;2024-01-16T09:59:08;12.77;;;4.47;;
18172;SDS011;9211;48.818;9.312;2024-01-16T10:01:36;11.43;;;3.90;;
18172;SDS011;9211;48.818;9.312;2024-01-16T10:04:04;10.85;;;3.97;;
18172;SDS011;9211;48.818;9.312;2024-01-16T10:06:32;9.03;;;3.80;;
18172;SDS011;9211;48.818;9.312;2024-01-16T10:09:01;9.38;;;3.63;;
18172;SDS011;9211;48.818;9.312;2024-01-16T10:11:28;9.95;;;3.80;;
18172;SDS011;9211;48.818;9.312;2024-01-16T10:13:56;7.77;;;3.80;;
18172;SDS011;9211;48.818;9.312;2024-01-16T10:16:24;7.60;;;3.40;;
18172;SDS011;9211;48.818;9.312;2024-01-16T10:19:28;8.45;;;3.88;;
18172;SDS011;9211;48.818;9.312;2024-01-16T10:22:02;9.98;;;3.47;;
18172;SDS011;9211;48.818;9.312;2024-01-16T10:24:29;15.00;;;5.00;;
18172;SDS011;9211;48.818;9.312;2024-01-16T10:26:58;8.52;;;3.63;;
18172;SDS011;9211;48.818;9.312;2024-01-16T10:29:28;9.27;;;3.83;;
18172;SDS011;9211;48.818;9.312;2024-01-16T10:31:55;8.32;;;3.80;;
18172;SDS011;9211;48.818;9.312;2024-01-16T10:34:22;9.98;;;3.88;;
18172;SDS011;9211;48.818;9.312;2024-01-16T10:36:49;9.95;;;3.92;;
18172;SDS011;9211;48.818;9.312;2024-01-16T10:39:18;13.88;;;3.90;;
18172;SDS011;9211;48.818;9.312;2024-01-16T10:41:55;11.25;;;3.75;;
18172;SDS011;9211;48.818;9.312;2024-01-16T10:44:22;10.88;;;3.83;;
18172;SDS011;9211;48.818;9.312;2024-01-16T10:46:49;10.07;;;3.72;;
18172;SDS011;9211;48.818;9.312;2024-01-16T10:49:16;11.27;;;4.10;;
18172;SDS011;9211;48.818;9.312;2024-01-16T10:51:43;11.15;;;4.07;;
18172;SDS011;9211;48.818;9.312;2024-01-16T10:54:12;8.50;;;3.83;;
18172;SDS011;9211;48.818;9.312;2024-01-16T10:56:44;10.60;;;4.00;;
18172;SDS011;9211;48.818;9.312;2024-01-16T10:59:15;10.82;;;3.80;;
18172;SDS011;9211;48.818;9.312;2024-01-16T11:01:46;8.88;;;3.75;;
18172;SDS011;9211;48.818;9.312;2024-01-16T11:04:17;8.93;;;3.63;;
18172;SDS011;9211;48.818;9.312;2024-01-16T11:06:44;9.27;;;3.47;;
18172;SDS011;9211;48.818;9.312;2024-01-16T11:09:13;10.38;;;3.63;;
18172;SDS011;9211;48.818;9.312;2024-01-16T11:11:41;10.63;;;3.70;;
18172;SDS011;9211;48.818;9.312;2024-01-16T11:14:12;8.73;;;3.78;;
18172;SDS011;9211;48.818;9.312;2024-01-16T11:16:41;9.23;;;3.85;;
18172;SDS011;9211;48.818;9.312;2024-01-16T11:19:10;11.30;;;3.63;;
18172;SDS011;9211;48.818;9.312;2024-01-16T11:21:39;8.60;;;3.83;;
18172;SDS011;9211;48.818;9.312;2024-01-16T11:24:07;7.00;;;3.60;;
18172;SDS011;9211;48.818;9.312;2024-01-16T11:26:34;8.98;;;3.70;;
18172;SDS011;9211;48.818;9.312;2024-01-16T11:32:02;8.95;;;3.22;;
18172;SDS011;9211;48.818;9.312;2024-01-16T11:37:25;9.88;;;3.22;;
18172;SDS011;9211;48.818;9.312;2024-01-16T11:42:49;8.97;;;3.27;;
18172;SDS011;9211;48.818;9.312;2024-01-16T11:48:09;9.55;;;3.20;;
18172;SDS011;9211;48.818;9.312;2024-01-16T11:50:37;7.97;;;3.17;;
18172;SDS011;9211;48.818;9.312;2024-01-16T11:53:04;11.38;;;3.03;;
18172;SDS011;9211;48.818;9.312;2024-01-16T11:55:31;8.07;;;2.53;;
18172;SDS011;9211;48.818;9.312;2024-01-16T12:01:03;7.60;;;2.53;;
18172;SDS011;9211;48.818;9.312;2024-01-16T12:03:34;9.40;;;3.00;;
18172;SDS011;9211;48.818;9.312;2024-01-16T12:06:01;5.43;;;2.88;;
18172;SDS011;9211;48.818;9.312;2024-01-16T12:08:28;8.65;;;3.00;;
18172;SDS011;9211;48.818;9.312;2024-01-16T12:10:54;8.15;;;3.33;;
18172;SDS011;9211;48.818;9.312;2024-01-16T12:13:22;6.53;;;2.70;;
18172;SDS011;9211;48.818;9.312;2024-01-16T12:15:49;7.37;;;2.93;;
18172;SDS011;9211;48.818;9.312;2024-01-16T12:18:25;6.10;;;2.40;;
18172;SDS011;9211;48.818;9.312;2024-01-16T12:20:54;6.18;;;2.60;;
18172;SDS011;9211;48.818;9.312;2024-01-16T12:23:20;8.02;;;2.83;;
18172;SDS011;9211;48.818;9.312;2024-01-16T12:25:51;5.90;;;2.55;;
18172;SDS011;9211;48.818;9.312;2024-01-16T12:28:20;8.18;;;3.10;;
18172;SDS011;9211;48.818;9.312;2024-01-16T12:30:48;7.05;;;2.40;;
18172;SDS011;9211;48.818;9.312;2024-01-16T12:33:16;5.55;;;2.20;;
18172;SDS011;9211;48.818;9.312;2024-01-16T12:35:48;5.05;;;1.80;;
18172;SDS011;9211;48.818;9.312;2024-01-16T12:38:16;6.73;;;2.20;;
18172;SDS011;9211;48.818;9.312;2024-01-16T12:40:44;7.35;;;1.88;;
18172;SDS011;9211;48.818;9.312;2024-01-16T12:43:15;4.32;;;1.80;;
18172;SDS011;9211;48.818;9.312;2024-01-16T12:45:43;4.38;;;1.85;;
18172;SDS011;9211;48.818;9.312;2024-01-16T12:48:11;6.93;;;1.80;;
18172;SDS011;9211;48.818;9.312;2024-01-16T12:50:38;7.93;;;1.90;;
18172;SDS011;9211;48.818;9.312;2024-01-16T12:53:06;4.93;;;2.10;;
18172;SDS011;9211;48.818;9.312;2024-01-16T12:55:35;5.10;;;2.43;;
18172;SDS011;9211;48.818;9.312;2024-01-16T12:58:13;7.25;;;2.55;;
18172;SDS011;9211;48.818;9.312;2024-01-16T13:00:41;5.00;;;1.93;;
18172;SDS011;9211;48.818;9.312;2024-01-16T13:03:14;4.35;;;1.60;;
18172;SDS011;9211;48.818;9.312;2024-01-16T13:05:42;5.90;;;1.50;;
18172;SDS011;9211;48.818;9.312;2024-01-16T13:08:16;5.00;;;1.52;;
18172;SDS011;9211;48.818;9.312;2024-01-16T13:10:45;4.80;;;1.90;;
18172;SDS011;9211;48.818;9.312;2024-01-16T13:13:13;6.25;;;2.00;;
18172;SDS011;9211;48.818;9.312;2024-01-16T13:15:42;8.45;;;2.10;;
18172;SDS011;9211;48.818;9.312;2024-01-16T13:18:18;3.55;;;1.35;;
18172;SDS011;9211;48.818;9.312;2024-01-16T13:20:46;5.20;;;1.48;;
18172;SDS011;9211;48.818;9.312;2024-01-16T13:23:14;9.05;;;1.67;;
18172;SDS011;9211;48.818;9.312;2024-01-16T13:25:42;4.60;;;1.80;;
18172;SDS011;9211;48.818;9.312;2024-01-16T13:28:12;3.70;;;1.25;;
18172;SDS011;9211;48.818;9.312;2024-01-16T13:30:39;5.03;;;1.50;;
18172;SDS011;9211;48.818;9.312;2024-01-16T13:33:06;4.17;;;1.57;;
18172;SDS011;9211;48.818;9.312;2024-01-16T13:35:34;4.70;;;1.40;;
18172;SDS011;9211;48.818;9.312;2024-01-16T13:38:02;5.75;;;1.40;;
18172;SDS011;9211;48.818;9.312;2024-01-16T13:40:30;3.38;;;1.40;;
18172;SDS011;9211;48.818;9.312;2024-01-16T13:42:58;3.47;;;1.20;;
18172;SDS011;9211;48.818;9.312;2024-01-16T13:45:26;3.92;;;1.33;;
18172;SDS011;9211;48.818;9.312;2024-01-16T13:47:54;3.70;;;1.57;;
18172;SDS011;9211;48.818;9.312;2024-01-16T13:50:21;4.00;;;1.38;;
18172;SDS011;9211;48.818;9.312;2024-01-16T13:52:48;4.63;;;1.50;;
18172;SDS011;9211;48.818;9.312;2024-01-16T13:55:16;5.18;;;1.50;;
18172;SDS011;9211;48.818;9.312;2024-01-16T13:57:44;3.88;;;1.52;;
18172;SDS011;9211;48.818;9.312;2024-01-16T14:00:11;3.97;;;1.52;;
18172;SDS011;9211;48.818;9.312;2024-01-16T14:02:44;5.60;;;1.77;;
18172;SDS011;9211;48.818;9.312;2024-01-16T14:05:16;3.60;;;1.50;;
18172;SDS011;9211;48.818;9.312;2024-01-16T14:07:44;4.50;;;1.50;;
18172;SDS011;9211;48.818;9.312;2024-01-16T14:10:12;7.78;;;1.58;;
18172;SDS011;9211;48.818;9.312;2024-01-16T14:12:40;5.32;;;1.83;;
18172;SDS011;9211;48.818;9.312;2024-01-16T14:15:08;7.25;;;2.10;;
18172;SDS011;9211;48.818;9.312;2024-01-16T14:17:41;5.07;;;1.83;;
18172;SDS011;9211;48.818;9.312;2024-01-16T14:20:11;4.80;;;2.07;;
18172;SDS011;9211;48.818;9.312;2024-01-16T14:22:39;4.88;;;2.10;;
18172;SDS011;9211;48.818;9.312;2024-01-16T14:25:06;5.80;;;1.92;;
18172;SDS011;9211;48.818;9.312;2024-01-16T14:27:36;4.40;;;1.95;;
18172;SDS011;9211;48.818;9.312;2024-01-16T14:30:05;3.70;;;1.70;;
18172;SDS011;9211;48.818;9.312;2024-01-16T14:32:33;5.30;;;2.20;;
18172;SDS011;9211;48.818;9.312;2024-01-16T14:35:00;5.13;;;2.20;;
18172;SDS011;9211;48.818;9.312;2024-01-16T14:37:30;6.00;;;2.10;;
18172;SDS011;9211;48.818;9.312;2024-01-16T14:39:58;4.97;;;2.00;;
18172;SDS011;9211;48.818;9.312;2024-01-16T14:42:26;4.88;;;2.20;;
18172;SDS011;9211;48.818;9.312;2024-01-16T14:44:53;5.68;;;2.20;;
18172;SDS011;9211;48.818;9.312;2024-01-16T14:47:21;5.63;;;2.20;;
18172;SDS011;9211;48.818;9.312;2024-01-16T14:49:49;6.97;;;2.60;;
18172;SDS011;9211;48.818;9.312;2024-01-16T14:52:19;5.95;;;2.28;;
18172;SDS011;9211;48.818;9.312;2024-01-16T14:54:48;6.77;;;2.10;;
18172;SDS011;9211;48.818;9.312;2024-01-16T14:57:15;5.90;;;2.20;;
18172;SDS011;9211;48.818;9.312;2024-01-16T14:59:42;5.32;;;2.10;;
18172;SDS011;9211;48.818;9.312;2024-01-16T15:02:10;5.85;;;2.15;;
18172;SDS011;9211;48.818;9.312;2024-01-16T15:04:38;6.82;;;2.08;;
18172;SDS011;9211;48.818;9.312;2024-01-16T15:07:06;5.03;;;2.10;;
18172;SDS011;9211;48.818;9.312;2024-01-16T15:09:33;5.47;;;2.35;;
18172;SDS011;9211;48.818;9.312;2024-01-16T15:12:04;7.18;;;2.13;;
18172;SDS011;9211;48.818;9.312;2024-01-16T15:14:31;6.88;;;2.30;;
18172;SDS011;9211;48.818;9.312;2024-01-16T15:16:59;6.35;;;2.15;;
18172;SDS011;9211;48.818;9.312;2024-01-16T15:19:26;5.93;;;2.05;;